Michigan Trader — V2DO6 — position and weather

sailwx.info

Track history (hours):
 
Tides and Currents Weather Stations Pressure Air Temp Water Temp Dewpoint Dewpoint Depression Visibility Wind Speed Wind Dir Waves Ship Positions

Michigan Trader

Last reported at 2017-Dec-10 04:04 UTC. Time now 2017-Dec-11 20:45 UTC.
Position N 43°22' E 028°41'.

Length 166 m; draft 8.8 m.

Type: Ship (hazmat cat D). MMSI: 305282000.

Date/timePositionNaut miles runAvg speedWind from/ knotsBaromVisibWave heightAir tempDewpointWater temp
2017-Dec-10 04:04N 43°22' E 028°41'1 9.1
2017-Dec-10 04:01N 43°23' E 028°42'5 9.5
2017-Dec-10 03:31N 43°27' E 028°43'5 9.3
2017-Dec-10 03:00N 43°32' E 028°45'5 9.2
2017-Dec-10 02:31N 43°36' E 028°47'5 9.1
2017-Dec-10 02:00N 43°41' E 028°48'5 9.1
2017-Dec-10 01:30N 43°45' E 028°49'5 9.1
2017-Dec-10 01:00N 43°50' E 028°49'5 9.5
2017-Dec-10 00:30N 43°55' E 028°49'5 9.6
2017-Dec-10 00:00N 43°59' E 028°48'5 9.8
2017-Dec-09 23:30N 44°03' E 028°44'4 7.3
2017-Dec-09 23:00N 44°06' E 028°41'1 1.9
2017-Dec-09 22:29N 44°06' E 028°40'0 0.0
2017-Dec-09 21:59N 44°06' E 028°40'0 0.0
2017-Dec-09 21:29N 44°06' E 028°40'0 0.0
2017-Dec-09 20:59N 44°06' E 028°40'0 0.0
2017-Dec-09 20:29N 44°06' E 028°40'0 0.0
2017-Dec-09 19:59N 44°06' E 028°40'0 0.0
2017-Dec-09 19:29N 44°06' E 028°40'0 0.0
2017-Dec-09 18:59N 44°06' E 028°40'0 0.0
2017-Dec-09 18:29N 44°06' E 028°40'0 0.0
2017-Dec-09 18:01N 44°06' E 028°40'0 0.0
2017-Dec-09 17:31N 44°06' E 028°40'0 0.0
2017-Dec-09 16:59N 44°06' E 028°40'0 0.0
2017-Dec-09 16:30N 44°06' E 028°40'0 0.9
2017-Dec-09 16:00N 44°06' E 028°40'2 4.3
2017-Dec-09 15:30N 44°06' E 028°43'4 8.6
2017-Dec-09 15:00N 44°02' E 028°47'4 7.9
2017-Dec-09 14:30N 44°00' E 028°51'4 8.7
2017-Dec-09 14:00N 44°00' E 028°57'4 8.8
2017-Dec-09 13:30N 44°00' E 029°03'510.1
2017-Dec-09 13:00N 44°00' E 029°11'612.3
2017-Dec-09 12:30N 44°00' E 029°19'612.3
2017-Dec-09 12:00N 44°00' E 029°28'612.4
2017-Dec-09 11:30N 44°01' E 029°36'32312.8
2017-Dec-08 10:21N 44°19' E 037°06'513.0
2017-Dec-08 09:56N 44°22' E 037°12'613.2
2017-Dec-08 09:30N 44°24' E 037°20'713.1
2017-Dec-08 09:00N 44°27' E 037°28'714.7
2017-Dec-08 08:30N 44°30' E 037°37'612.3
2017-Dec-08 08:00N 44°34' E 037°44'611.7
2017-Dec-08 07:30N 44°38' E 037°49'4 8.4
2017-Dec-08 07:00N 44°43' E 037°48'1 1.5
2017-Dec-08 06:28N 44°43' E 037°49'0 0.0
2017-Dec-08 05:58N 44°43' E 037°49'0 0.0
2017-Dec-08 05:28N 44°43' E 037°49'0 0.0
2017-Dec-08 04:58N 44°43' E 037°49'0 0.0
2017-Dec-08 04:28N 44°43' E 037°49'0 0.0
2017-Dec-08 03:58N 44°43' E 037°49'0 0.0
2017-Dec-08 03:28N 44°43' E 037°49'0 0.0
2017-Dec-08 02:58N 44°43' E 037°49'0 0.0
2017-Dec-08 02:28N 44°43' E 037°49'0 0.0
2017-Dec-08 01:58N 44°43' E 037°49'0 0.0
2017-Dec-08 01:28N 44°43' E 037°49'0 0.0
2017-Dec-08 00:58N 44°43' E 037°49'0 0.0
2017-Dec-08 00:28N 44°43' E 037°49'0 0.0
2017-Dec-07 23:58N 44°43' E 037°49'0 0.0
2017-Dec-07 23:28N 44°43' E 037°49'0 0.0
2017-Dec-07 22:58N 44°43' E 037°49'0 0.0
2017-Dec-07 22:28N 44°43' E 037°49'0 0.0
2017-Dec-07 21:58N 44°43' E 037°49'0 0.0
2017-Dec-07 21:28N 44°43' E 037°49'0 0.0
2017-Dec-07 20:58N 44°43' E 037°49'0 0.0
2017-Dec-07 20:28N 44°43' E 037°49'0 0.0
2017-Dec-07 19:58N 44°43' E 037°49'0 0.0
2017-Dec-07 19:28N 44°43' E 037°49'0 0.0
2017-Dec-07 18:58N 44°43' E 037°49'0 0.0
2017-Dec-07 18:28N 44°43' E 037°49'0 0.0
2017-Dec-07 17:58N 44°43' E 037°49'0 0.0
2017-Dec-07 17:28N 44°43' E 037°49'0 0.0
2017-Dec-07 16:58N 44°43' E 037°49'0 0.0
2017-Dec-07 16:25N 44°43' E 037°49'0 0.0
2017-Dec-07 15:58N 44°43' E 037°49'0 0.0
2017-Dec-07 15:28N 44°43' E 037°49'0 0.0
2017-Dec-07 14:58N 44°43' E 037°49'1 1.1
2017-Dec-07 14:30N 44°43' E 037°48'4 7.3
2017-Dec-07 14:00N 44°40' E 037°51'5 9.0
2017-Dec-07 13:30N 44°35' E 037°51'2 4.0
2017-Dec-07 13:00N 44°34' E 037°50'611.0
2017-Dec-07 12:30N 44°30' E 037°44'510.3
2017-Dec-07 12:00N 44°27' E 037°39'2 4.3
2017-Dec-07 11:30N 44°27' E 037°36'713.0
2017-Dec-07 11:00N 44°24' E 037°27'612.8
2017-Dec-07 10:30N 44°21' E 037°19'  
Track history (hours):
 
Tides and Currents Weather Stations Pressure Air Temp Water Temp Dewpoint Dewpoint Depression Visibility Wind Speed Wind Dir Waves Ship Positions

Michigan Trader

Last reported at 2017-Dec-10 04:04 UTC. Time now 2017-Dec-11 20:45 UTC.
Position N 43°22' E 028°41'.

Length 166 m; draft 8.8 m.

Type: Ship (hazmat cat D). MMSI: 305282000.

Date/timePositionNaut miles runAvg speedWind from/ knotsBaromVisibWave heightAir tempDewpointWater temp
2017-Dec-10 04:04N 43°22' E 028°41'1 9.1
2017-Dec-10 04:01N 43°23' E 028°42'5 9.5
2017-Dec-10 03:31N 43°27' E 028°43'5 9.3
2017-Dec-10 03:00N 43°32' E 028°45'5 9.2
2017-Dec-10 02:31N 43°36' E 028°47'5 9.1
2017-Dec-10 02:00N 43°41' E 028°48'5 9.1
2017-Dec-10 01:30N 43°45' E 028°49'5 9.1
2017-Dec-10 01:00N 43°50' E 028°49'5 9.5
2017-Dec-10 00:30N 43°55' E 028°49'5 9.6
2017-Dec-10 00:00N 43°59' E 028°48'5 9.8
2017-Dec-09 23:30N 44°03' E 028°44'4 7.3
2017-Dec-09 23:00N 44°06' E 028°41'1 1.9
2017-Dec-09 22:29N 44°06' E 028°40'0 0.0
2017-Dec-09 21:59N 44°06' E 028°40'0 0.0
2017-Dec-09 21:29N 44°06' E 028°40'0 0.0
2017-Dec-09 20:59N 44°06' E 028°40'0 0.0
2017-Dec-09 20:29N 44°06' E 028°40'0 0.0
2017-Dec-09 19:59N 44°06' E 028°40'0 0.0
2017-Dec-09 19:29N 44°06' E 028°40'0 0.0
2017-Dec-09 18:59N 44°06' E 028°40'0 0.0
2017-Dec-09 18:29N 44°06' E 028°40'0 0.0
2017-Dec-09 18:01N 44°06' E 028°40'0 0.0
2017-Dec-09 17:31N 44°06' E 028°40'0 0.0
2017-Dec-09 16:59N 44°06' E 028°40'0 0.0
2017-Dec-09 16:30N 44°06' E 028°40'0 0.9
2017-Dec-09 16:00N 44°06' E 028°40'2 4.3
2017-Dec-09 15:30N 44°06' E 028°43'4 8.6
2017-Dec-09 15:00N 44°02' E 028°47'4 7.9
2017-Dec-09 14:30N 44°00' E 028°51'4 8.7
2017-Dec-09 14:00N 44°00' E 028°57'4 8.8
2017-Dec-09 13:30N 44°00' E 029°03'510.1
2017-Dec-09 13:00N 44°00' E 029°11'612.3
2017-Dec-09 12:30N 44°00' E 029°19'612.3
2017-Dec-09 12:00N 44°00' E 029°28'612.4
2017-Dec-09 11:30N 44°01' E 029°36'32312.8
2017-Dec-08 10:21N 44°19' E 037°06'513.0
2017-Dec-08 09:56N 44°22' E 037°12'613.2
2017-Dec-08 09:30N 44°24' E 037°20'713.1
2017-Dec-08 09:00N 44°27' E 037°28'714.7
2017-Dec-08 08:30N 44°30' E 037°37'612.3
2017-Dec-08 08:00N 44°34' E 037°44'611.7
2017-Dec-08 07:30N 44°38' E 037°49'4 8.4
2017-Dec-08 07:00N 44°43' E 037°48'1 1.5
2017-Dec-08 06:28N 44°43' E 037°49'0 0.0
2017-Dec-08 05:58N 44°43' E 037°49'0 0.0
2017-Dec-08 05:28N 44°43' E 037°49'0 0.0
2017-Dec-08 04:58N 44°43' E 037°49'0 0.0
2017-Dec-08 04:28N 44°43' E 037°49'0 0.0
2017-Dec-08 03:58N 44°43' E 037°49'0 0.0
2017-Dec-08 03:28N 44°43' E 037°49'0 0.0
2017-Dec-08 02:58N 44°43' E 037°49'0 0.0
2017-Dec-08 02:28N 44°43' E 037°49'0 0.0
2017-Dec-08 01:58N 44°43' E 037°49'0 0.0
2017-Dec-08 01:28N 44°43' E 037°49'0 0.0
2017-Dec-08 00:58N 44°43' E 037°49'0 0.0
2017-Dec-08 00:28N 44°43' E 037°49'0 0.0
2017-Dec-07 23:58N 44°43' E 037°49'0 0.0
2017-Dec-07 23:28N 44°43' E 037°49'0 0.0
2017-Dec-07 22:58N 44°43' E 037°49'0 0.0
2017-Dec-07 22:28N 44°43' E 037°49'0 0.0
2017-Dec-07 21:58N 44°43' E 037°49'0 0.0
2017-Dec-07 21:28N 44°43' E 037°49'0 0.0
2017-Dec-07 20:58N 44°43' E 037°49'0 0.0
2017-Dec-07 20:28N 44°43' E 037°49'0 0.0
2017-Dec-07 19:58N 44°43' E 037°49'0 0.0
2017-Dec-07 19:28N 44°43' E 037°49'0 0.0
2017-Dec-07 18:58N 44°43' E 037°49'0 0.0
2017-Dec-07 18:28N 44°43' E 037°49'0 0.0
2017-Dec-07 17:58N 44°43' E 037°49'0 0.0
2017-Dec-07 17:28N 44°43' E 037°49'0 0.0
2017-Dec-07 16:58N 44°43' E 037°49'0 0.0
2017-Dec-07 16:25N 44°43' E 037°49'0 0.0
2017-Dec-07 15:58N 44°43' E 037°49'0 0.0
2017-Dec-07 15:28N 44°43' E 037°49'0 0.0
2017-Dec-07 14:58N 44°43' E 037°49'1 1.1
2017-Dec-07 14:30N 44°43' E 037°48'4 7.3
2017-Dec-07 14:00N 44°40' E 037°51'5 9.0
2017-Dec-07 13:30N 44°35' E 037°51'2 4.0
2017-Dec-07 13:00N 44°34' E 037°50'611.0
2017-Dec-07 12:30N 44°30' E 037°44'510.3
2017-Dec-07 12:00N 44°27' E 037°39'2 4.3
2017-Dec-07 11:30N 44°27' E 037°36'713.0
2017-Dec-07 11:00N 44°24' E 037°27'612.8
2017-Dec-07 10:30N 44°21' E 037°19'  

Dump ship's entire track history